Segovia, Spain
Current Conditions -  °F | °C
As of 7:30 PM on Monday 26 Jan 2015 (Local Time) from LEVS Reporting Station
Clear Clear  
Wind Chill:   Ceiling: Unl
Heat Index:   Visibility: 6mi
Dew Point: -1°   Wind: 0mph
Humidity: 53%   Direction: NA
Pressure: 30.36"   Gusts: NA
Location:  40.95°N, 4.12°W
Report Text: LEVS 261830Z 00000KT CAVOK 08/M01 Q1028
Loading
Personal Weather Stations






























Interactive Weather Map New forecast layout! Learn more

10-Day Weather Forecast

Advertisements
Track Severe Weather on mobile